Flight Track Log - Related Links

Times and Time Zones

All times are in EDT time to prevent confusion due to time zone crossing. See the DLH455 flight status page for this flight to view local times or setup timezone preferences in your user account.

Time Position Orientation Groundspeed Altitude Reporting Facility
EDT Latitude Longitude Course Direction KTS MPH feet Rate Location/Type
Thu 06:05:37 PM 37.6250 -122.3940 360° North 20 23  Level FlightAware ADS-B
Thu 06:06:15 PM 37.6270 -122.3960 322° Northwest 33 38 17 Level FlightAware ADS-B
Thu 06:06:41 PM 37.6280 -122.3970 322° Northwest 29 33 18 Level FlightAware ADS-B
Thu 06:07:09 PM 37.6300 -122.3970 360° North 30 35 18 Level FlightAware ADS-B
Thu 06:07:25 PM 37.6310 -122.3960 38° Northeast 30 35 19 Level FlightAware ADS-B
Thu 06:10:25 PM 37.6250 -122.3800 115° Southeast 21 24 20 Level FlightAware ADS-B
Thu 06:17:11 PM 37.6140 -122.3590 270° West 33 38 28 Level FlightAware ADS-B
Thu 06:17:35 PM 37.6184 -122.3690 299° West 107 123 200 419 Climbing FlightAware ADS-B
Thu 06:17:54 PM 37.6241 -122.3820 299° West 156 180 300 750 Climbing FlightAware ADS-B
Thu 06:18:07 PM 37.6286 -122.3940 295° West 164 189 600 1,241 Climbing FlightAware ADS-B
Thu 06:18:23 PM 37.6341 -122.4070 298° West 169 194 900 1,355 Climbing FlightAware ADS-B
Thu 06:18:38 PM 37.6394 -122.4210 296° West 172 198 1,300 1,636 Climbing FlightAware ADS-B
Thu 06:18:56 PM 37.6459 -122.4370 297° West 172 198 1,800 1,588 Climbing FlightAware ADS-B
Thu 06:19:12 PM 37.6513 -122.4520 294° West 171 197 2,200 1,548 Climbing FlightAware ADS-B
Thu 06:19:27 PM 37.6569 -122.4650 299° West 172 198 2,600 1,548 Climbing FlightAware ADS-B
Thu 06:19:43 PM 37.6628 -122.4790 298° West 170 196 3,000 1,548 Climbing FlightAware ADS-B
Thu 06:19:58 PM 37.6687 -122.4920 300° West 170 196 3,400 1,161 Climbing FlightAware ADS-B
Thu 06:20:14 PM 37.6752 -122.5060 300° West 180 207 3,600 545 Climbing FlightAware ADS-B
Thu 06:20:31 PM 37.6827 -122.5220 301° West 195 224 3,700 500 Climbing FlightAware ADS-B
Thu 06:20:38 PM 37.6864 -122.5290 304° West 200 230 3,800 1,000 Climbing FlightAware ADS-B
Thu 06:20:43 PM 37.6896 -122.5340 309° West 203 234 3,900 724 Climbing FlightAware ADS-B
Thu 06:21:36 PM 37.7426 -122.5370 357° North 203 234 4,500 774 Climbing FlightAware ADS-B
Thu 06:21:45 PM 37.7525 -122.5350 North 249 287 4,700 1,448 Climbing FlightAware ADS-B
Thu 06:22:05 PM 37.7762 -122.5320 North 260 299 5,200 1,627 Climbing FlightAware ADS-B
Thu 06:22:44 PM 37.8165 -122.5020 30° Northeast 281 323 6,300 1,770 Climbing FlightAware ADS-B
Thu 06:23:06 PM 37.8345 -122.4730 52° Northeast 281 323 7,000 1,814 Climbing FlightAware ADS-B
Thu 06:23:27 PM 37.8516 -122.4470 50° Northeast 287 330 7,600 1,714 Climbing FlightAware ADS-B
Thu 06:24:02 PM 37.8820 -122.4020 49° Northeast 295 339 8,600 1,810 Climbing FlightAware ADS-B
Thu 06:24:30 PM 37.9070 -122.3640 50° Northeast 296 341 9,500 1,800 Climbing FlightAware ADS-B
Thu 06:24:42 PM 37.9180 -122.3490 47° Northeast 300 345 9,800 1,286 Climbing FlightAware ADS-B
Thu 06:25:26 PM 37.9580 -122.2880 50° Northeast 322 371 10,700 1,083 Climbing FlightAware ADS-B
Thu 06:25:54 PM 37.9864 -122.2450 50° Northeast 347 399 11,100 677 Climbing FlightAware ADS-B
Thu 06:26:28 PM 38.0229 -122.1910 49° Northeast 373 429 11,400 857 Climbing FlightAware ADS-B
Thu 06:27:32 PM 38.0988 -122.0760 50° Northeast 409 471 12,500 1,175 Climbing FlightAware ADS-B
Thu 06:28:05 PM 38.1370 -122.0190 50° Northeast 413 475 13,300 1,500 Climbing FlightAware ADS-B
Thu 06:28:32 PM 38.1726 -121.9650 50° Northeast 411 473 14,000 1,552 Climbing FlightAware ADS-B
Thu 06:29:03 PM 38.2117 -121.9050 50° Northeast 426 490 14,800 1,548 Climbing FlightAware ADS-B
Thu 06:29:34 PM 38.2506 -121.8460 50° Northeast 431 496 15,600 1,468 Climbing FlightAware ADS-B
Thu 06:30:37 PM 38.3320 -121.7220 50° Northeast 441 507 17,100 1,353 Climbing FlightAware ADS-B
Thu 06:31:16 PM 38.3830 -121.6440 50° Northeast 449 517 17,900 1,291 Climbing FlightAware ADS-B
Thu 06:31:56 PM 38.4380 -121.5610 50° Northeast 460 529 18,800 1,446 Climbing FlightAware ADS-B
Thu 06:32:39 PM 38.4940 -121.4690 52° Northeast 467 537 19,900 1,524 Climbing FlightAware ADS-B
Thu 06:32:59 PM 38.5201 -121.4240 53° Northeast 443 510 20,400 1,443 Climbing FlightAware ADS-B
Thu 06:33:58 PM 38.6200 -121.3220 39° Northeast 478 550 21,800 1,515 Climbing FlightAware ADS-B
Thu 06:34:38 PM 38.6920 -121.2500 38° Northeast 484 557 22,900 1,350 Climbing FlightAware ADS-B
Thu 06:35:18 PM 38.7620 -121.1800 38° Northeast 495 570 23,600 1,054 Climbing FlightAware ADS-B
Thu 06:35:52 PM 38.8240 -121.1190 37° Northeast 504 580 24,200 1,390 Climbing FlightAware ADS-B
Thu 06:36:40 PM 38.9130 -121.0300 38° Northeast 503 579 25,500 1,429 Climbing FlightAware ADS-B
Thu 06:37:16 PM 38.9790 -120.9640 38° Northeast 510 587 26,200 1,026 Climbing FlightAware ADS-B
Thu 06:37:56 PM 39.0540 -120.8890 38° Northeast 519 597 26,800 1,029 Climbing FlightAware ADS-B
Thu 06:38:26 PM 39.1120 -120.8300 38° Northeast 524 603 27,400 1,075 Climbing FlightAware ADS-B
Thu 06:39:03 PM 39.1780 -120.7630 38° Northeast 527 606 28,000 1,026 Climbing FlightAware ADS-B
Thu 06:39:42 PM 39.2550 -120.6860 38° Northeast 534 615 28,700 985 Climbing FlightAware ADS-B
Thu 06:40:10 PM 39.3130 -120.6260 39° Northeast 540 621 29,100 1,000 Climbing FlightAware ADS-B
Thu 06:40:42 PM 39.3760 -120.5630 38° Northeast 539 620 29,700 1,059 Climbing FlightAware ADS-B
Thu 06:41:18 PM 39.4470 -120.4890 39° Northeast 543 625 30,300 1,184 Climbing FlightAware ADS-B
Thu 06:41:58 PM 39.5250 -120.4100 38° Northeast 538 619 31,200 1,000 Climbing FlightAware ADS-B
Thu 06:42:42 PM 39.6120 -120.3200 39° Northeast 545 627 31,700 900 Climbing FlightAware ADS-B
Thu 06:43:18 PM 39.6830 -120.2470 38° Northeast 542 624 32,400 1,250 Climbing FlightAware ADS-B
Thu 06:43:54 PM 39.7540 -120.1750 38° Northeast 535 616 33,200 1,171 Climbing FlightAware ADS-B
Thu 06:44:40 PM 39.8400 -120.0860 38° Northeast 533 613 34,000 951 Climbing FlightAware ADS-B
Thu 06:45:16 PM 39.9100 -120.0120 39° Northeast 532 612 34,500 789 Climbing FlightAware ADS-B
Thu 06:45:56 PM 39.9880 -119.9310 38° Northeast 531 611 35,000 395 Climbing FlightAware ADS-B
Thu 06:46:32 PM 40.0590 -119.8640 36° Northeast 528 608 35,000  Level FlightAware ADS-B
Thu 06:47:14 PM 40.1520 -119.8050 26° Northeast 535 616 35,000  Level FlightAware ADS-B
Thu 06:47:54 PM 40.2420 -119.7490 25° Northeast 534 615 35,000  Level FlightAware ADS-B
Thu 06:48:40 PM 40.3440 -119.6870 25° Northeast 534 615 35,000  Level FlightAware ADS-B
Thu 06:49:19 PM 40.4280 -119.6260 29° Northeast 534 615 35,000  Level FlightAware ADS-B
Thu 06:49:56 PM 40.5090 -119.5670 29° Northeast 536 617 35,000  Level FlightAware ADS-B
Thu 06:50:36 PM 40.5930 -119.5020 30° Northeast 537 618 35,000  Level FlightAware ADS-B
Thu 06:51:14 PM 40.6670 -119.4230 39° Northeast 541 623 35,000  Level FlightAware ADS-B
Thu 06:51:51 PM 40.7370 -119.3450 40° Northeast 532 612 35,000  Level FlightAware ADS-B
Thu 06:52:34 PM 40.8200 -119.2530 40° Northeast 539 620 35,000  Level FlightAware ADS-B
Thu 06:53:15 PM 40.8900 -119.1750 40° Northeast 536 617 35,000  Level FlightAware ADS-B
Thu 06:53:57 PM 40.9730 -119.0810 41° Northeast 539 620 35,000  Level FlightAware ADS-B
Thu 06:54:43 PM 41.0580 -118.9860 40° Northeast 541 623 35,000  Level FlightAware ADS-B
Thu 06:55:33 PM 41.1390 -118.8930 41° Northeast 539 620 35,000  Level FlightAware ADS-B
Thu 06:56:09 PM 41.1960 -118.8260 41° Northeast 539 620 35,000  Level FlightAware ADS-B
Thu 06:56:45 PM 41.2540 -118.7590 41° Northeast 539 620 35,000  Level FlightAware ADS-B
Thu 06:57:24 PM 41.3550 -118.6470 40° Northeast 540 621 35,000  Level FlightAware ADS-B
Thu 06:58:01 PM 41.3730 -118.6260 41° Northeast 541 623 35,000  Level FlightAware ADS-B
Thu 06:58:51 PM 41.5130 -118.4650 41° Northeast 538 619 35,000  Level FlightAware ADS-B
Thu 06:59:23 PM 41.5700 -118.4000 40° Northeast 537 618 35,000  Level FlightAware ADS-B
Thu 07:00:11 PM 41.6460 -118.3110 41° Northeast 537 618 35,000  Level FlightAware ADS-B
Thu 07:00:47 PM 41.7040 -118.2440 41° Northeast 537 618 35,000  Level FlightAware ADS-B
Thu 07:01:36 PM 41.7820 -118.1530 41° Northeast 537 618 35,000  Level FlightAware ADS-B
Thu 07:02:12 PM 41.8390 -118.0860 41° Northeast 537 618 35,000  Level FlightAware ADS-B
Thu 07:02:59 PM 41.9140 -117.9980 41° Northeast 537 618 35,000 1,412 Level FlightAware ADS-B
Thu 07:03:37 PM 42.1360 -118.2960 315° West 505 581 37,000 1,395 Climbing FlightAware ADS-B
Thu 07:04:25 PM 42.1530 -118.3010 348° North 503 579 37,000  Level FlightAware ADS-B
Thu 07:05:05 PM 42.1530 -118.3010 348° North 508 585 37,000  Level FlightAware ADS-B
Thu 07:05:43 PM 42.2270 -118.3260 346° North 508 585 37,000  Level FlightAware ADS-B
Thu 07:06:16 PM 42.5100 -118.4150 347° North 520 598 37,000  Level FlightAware ADS-B
Thu 07:07:15 PM 42.5670 -118.4250 353° North 527 606 37,000  Level FlightAware ADS-B
Thu 07:08:04 PM 42.6680 -118.4420 353° North 527 606 37,000  Level FlightAware ADS-B
Thu 07:08:40 PM 42.7420 -118.4540 353° North 527 606 37,000  Level FlightAware ADS-B
Thu 07:09:29 PM 42.8430 -118.4710 353° North 527 606 37,000  Level FlightAware ADS-B
Thu 07:10:05 PM 42.9170 -118.4830 353° North 527 606 37,000  Level FlightAware ADS-B
Thu 07:10:42 PM 42.9930 -118.4960 353° North 527 606 37,000  Level FlightAware ADS-B
Thu 07:11:18 PM 43.0670 -118.5080 353° North 527 606 37,000  Level FlightAware ADS-B
Thu 07:12:06 PM 43.1660 -118.5250 353° North 527 606 37,000  Level FlightAware ADS-B
Thu 07:12:42 PM 43.2400 -118.5380 353° North 527 606 37,000  Level FlightAware ADS-B
Thu 07:13:18 PM 43.3140 -118.5500 353° North 527 606 37,000  Level FlightAware ADS-B
Thu 07:14:06 PM 43.4130 -118.5670 353° North 527 606 37,000  Level FlightAware ADS-B
Thu 07:14:42 PM 43.4870 -118.5790 353° North 527 606 37,000  Level FlightAware ADS-B
Thu 07:15:30 PM 43.5850 -118.5960 353° North 527 606 37,000  Level FlightAware ADS-B
Thu 07:16:06 PM 43.6590 -118.6090 353° North 527 606 37,000  Level FlightAware ADS-B
Thu 07:16:52 PM 43.8128 -117.4775 353° North 554 638 37,000  Level Salt Lake Center
Thu 07:17:53 PM 43.9119 -117.3289 47° Northeast 549 632 37,000  Level Salt Lake Center
Thu 07:18:54 PM 44.0286 -117.1553 47° Northeast 551 634 37,000  Level Salt Lake Center
Thu 07:19:55 PM 44.1300 -117.0050 47° Northeast 554 638 37,000  Level Salt Lake Center
Thu 07:20:56 PM 44.2303 -116.8553 47° Northeast 552 635 37,000  Level Salt Lake Center
Thu 07:21:57 PM 44.3447 -116.6808 47° Northeast 547 629 37,000  Level Salt Lake Center
Thu 07:22:58 PM 44.4436 -116.5311 47° Northeast 544 626 37,000  Level Salt Lake Center
Thu 07:23:59 PM 44.5433 -116.3811 47° Northeast 543 625 37,000  Level Salt Lake Center
Thu 07:25:00 PM 44.6600 -116.2000 48° Northeast 548 631 37,000  Level Salt Lake Center
Thu 07:26:00 PM 44.7575 -116.0478 48° Northeast 544 626 37,000  Level Salt Lake Center
Thu 07:27:01 PM 44.8544 -115.8972 48° Northeast 540 621 37,000  Level Salt Lake Center
Thu 07:28:02 PM 44.9506 -115.7458 48° Northeast 541 623 37,000  Level Salt Lake Center
Thu 07:29:03 PM 45.0619 -115.5667 49° Northeast 543 625 37,000  Level Salt Lake Center
Thu 07:30:04 PM 45.1583 -115.4147 48° Northeast 542 624 37,000  Level Salt Lake Center
Thu 07:31:05 PM 45.2697 -115.2372 48° Northeast 539 620 37,000  Level Salt Lake Center
Thu 07:32:06 PM 45.3647 -115.0839 49° Northeast 540 621 37,000  Level Salt Lake Center
Thu 07:33:07 PM 45.4594 -114.9311 48° Northeast 539 620 37,000  Level Salt Lake Center
Thu 07:34:08 PM 45.5711 -114.7519 48° Northeast 541 623 37,000  Level Salt Lake Center
Thu 07:34:48 PM 45.6331 -114.6500 49° Northeast 541 623 37,000  Level Seattle Center
Thu 07:35:49 PM 45.7322 -114.4867 49° Northeast 544 626 37,000  Level Seattle Center
Thu 07:36:49 PM 45.8306 -114.3242 49° Northeast 542 624 37,000  Level Seattle Center
Thu 07:37:50 PM 45.9350 -114.1506 49° Northeast 541 623 37,000  Level Seattle Center
Thu 07:38:51 PM 46.0342 -113.9878 49° Northeast 543 625 37,000  Level Seattle Center
Thu 07:39:51 PM 46.1322 -113.8203 50° Northeast 546 628 37,000  Level Seattle Center
Thu 07:40:52 PM 46.2306 -113.6542 49° Northeast 546 628 37,000  Level Seattle Center
Thu 07:42:15 PM 46.3678 -113.4189 50° Northeast 548 631 37,000  Level Salt Lake Center
Thu 07:43:16 PM 46.4547 -113.2728 49° Northeast 546 628 37,000  Level Salt Lake Center
Thu 07:44:17 PM 46.5531 -113.1050 50° Northeast 547 629 37,000  Level Salt Lake Center
Thu 07:45:18 PM 46.6503 -112.9350 50° Northeast 548 631 37,000  Level Salt Lake Center
Thu 07:46:19 PM 46.7658 -112.7319 50° Northeast 545 627 37,000  Level Salt Lake Center
Thu 07:47:20 PM 46.8636 -112.5608 50° Northeast 549 632 37,000  Level Salt Lake Center
Thu 07:48:21 PM 46.9619 -112.3897 50° Northeast 550 633 37,000  Level Salt Lake Center
Thu 07:49:22 PM 47.0656 -112.2256 47° Northeast 551 634 37,000  Level Salt Lake Center
Thu 07:50:23 PM 47.1697 -112.0614 47° Northeast 551 634 37,000  Level Salt Lake Center
Thu 07:51:24 PM 47.2731 -111.8964 47° Northeast 549 632 37,000  Level Salt Lake Center
Thu 07:52:25 PM 47.3767 -111.7333 47° Northeast 547 629 37,000  Level Salt Lake Center
Thu 07:53:26 PM 47.4814 -111.5686 47° Northeast 549 632 37,000  Level Salt Lake Center
Thu 07:54:27 PM 47.5844 -111.3783 51° Northeast 547 629 37,000  Level Salt Lake Center
Thu 07:55:27 PM 47.6803 -111.2039 51° Northeast 549 632 37,000  Level Salt Lake Center
Thu 07:56:28 PM 47.7808 -111.0258 50° Northeast 553 636 37,000  Level Salt Lake Center
Thu 07:57:29 PM 47.8772 -110.8522 50° Northeast 550 633 37,000  Level Salt Lake Center
Thu 07:58:30 PM 47.9714 -110.6756 51° Northeast 546 628 37,000  Level Salt Lake Center
Thu 07:59:33 PM 48.0619 -110.4942 53° Northeast 546 628 37,000  Level Salt Lake Center
Thu 08:00:34 PM 48.1539 -110.3139 53° Northeast 547 629 37,000  Level Salt Lake Center
Thu 08:06:30 PM 48.7350 -109.2650 53° Northeast 537 618 37,000  Level FlightAware ADS-B
Thu 08:07:09 PM 48.7940 -109.1570 50° Northeast 537 618 37,000  Level FlightAware ADS-B
Thu 08:07:55 PM 48.8590 -109.0400 50° Northeast 536 617 37,000  Level FlightAware ADS-B
Thu 08:08:31 PM 48.9080 -108.9510 50° Northeast 536 617 37,000  Level FlightAware ADS-B
Thu 08:09:19 PM 48.9730 -108.8330 50° Northeast 536 617 37,000  Level FlightAware ADS-B
Thu 08:09:55 PM 49.0220 -108.7450 50° Northeast 536 617 37,000  Level FlightAware ADS-B
Thu 08:10:43 PM 49.0870 -108.6260 50° Northeast 536 617 37,000  Level FlightAware ADS-B
Thu 08:11:19 PM 49.1350 -108.5370 50° Northeast 536 617 37,000  Level FlightAware ADS-B
Thu 08:11:55 PM 49.1840 -108.4490 50° Northeast 536 617 37,000  Level FlightAware ADS-B
Thu 08:12:43 PM 49.2490 -108.3300 50° Northeast 536 617 37,000  Level FlightAware ADS-B
Thu 08:13:19 PM 49.2980 -108.2410 50° Northeast 536 617 37,000  Level FlightAware ADS-B
Thu 08:14:07 PM 49.3630 -108.1220 50° Northeast 536 617 37,000  Level FlightAware ADS-B
Thu 08:14:43 PM 49.4120 -108.0320 50° Northeast 536 617 37,000  Level FlightAware ADS-B
Thu 08:15:26 PM 49.5420 -107.7470 55° Northeast 37,000  Level FlightAware ADS-B
Thu 08:17:24 PM 49.7230 -107.3950 51° Northeast 528 608 37,000  Level FlightAware ADS-B
Thu 08:18:09 PM 49.7940 -107.2540 52° Northeast 527 606 37,000  Level FlightAware ADS-B
Thu 08:18:41 PM 49.8340 -107.1740 52° Northeast 529 609 37,000  Level FlightAware ADS-B
Thu 08:19:26 PM 49.9050 -107.0340 52° Northeast 530 610 37,000  Level FlightAware ADS-B
Thu 08:20:06 PM 49.9690 -106.9060 52° Northeast 531 611 37,000  Level FlightAware ADS-B
Thu 08:20:44 PM 50.0250 -106.7950 52° Northeast 529 609 37,000  Level FlightAware ADS-B
Thu 08:21:29 PM 50.0890 -106.6650 52° Northeast 526 605 37,000  Level FlightAware ADS-B
Thu 08:22:14 PM 50.1560 -106.5300 52° Northeast 527 606 37,000  Level FlightAware ADS-B
Thu 08:22:55 PM 50.2170 -106.4060 52° Northeast 528 608 37,000  Level FlightAware ADS-B
Thu 08:23:32 PM 50.2730 -106.2900 53° Northeast 526 605 37,000  Level FlightAware ADS-B
Thu 08:24:05 PM 50.3210 -106.1920 52° Northeast 523 602 37,000  Level FlightAware ADS-B
Thu 08:24:53 PM 50.3890 -106.0510 53° Northeast 521 600 37,000  Level FlightAware ADS-B
Thu 08:25:30 PM 50.4430 -105.9410 52° Northeast 522 601 37,000  Level FlightAware ADS-B
Thu 08:26:07 PM 50.4950 -105.8310 53° Northeast 522 601 37,000  Level FlightAware ADS-B
Thu 08:26:56 PM 50.5650 -105.6870 53° Northeast 525 604 37,000  Level FlightAware ADS-B
Thu 08:27:35 PM 50.6200 -105.5700 53° Northeast 526 605 37,000  Level FlightAware ADS-B
Thu 08:28:20 PM 50.6870 -105.4290 53° Northeast 528 608 37,000  Level FlightAware ADS-B
Thu 08:28:57 PM 50.7410 -105.3140 53° Northeast 526 605 37,000  Level FlightAware ADS-B
Thu 08:29:42 PM 50.8050 -105.1780 53° Northeast 524 603 37,000  Level FlightAware ADS-B
Thu 08:30:20 PM 50.8610 -105.0570 54° Northeast 523 602 37,000  Level FlightAware ADS-B
Thu 08:31:08 PM 50.9320 -104.9050 53° Northeast 523 602 37,000  Level FlightAware ADS-B
Thu 08:31:44 PM 50.9870 -104.7850 54° Northeast 526 605 37,000  Level FlightAware ADS-B
Thu 08:32:25 PM 51.0450 -104.6590 54° Northeast 524 603 37,000  Level FlightAware ADS-B
Thu 08:33:10 PM 51.1070 -104.5240 54° Northeast 526 605 37,000  Level FlightAware ADS-B
Thu 08:33:47 PM 51.1650 -104.3960 54° Northeast 524 603 37,000  Level FlightAware ADS-B
Thu 08:34:43 PM 51.2450 -104.2210 54° Northeast 525 604 37,000  Level FlightAware ADS-B
Thu 08:35:28 PM 51.3120 -104.0710 54° Northeast 526 605 37,000  Level FlightAware ADS-B
Thu 08:36:11 PM 51.3660 -103.9510 54° Northeast 524 603 37,000  Level FlightAware ADS-B
Thu 08:36:55 PM 51.4240 -103.8190 55° Northeast 522 601 37,000  Level FlightAware ADS-B
Thu 08:37:36 PM 51.4760 -103.7050 54° Northeast 523 602 37,000  Level FlightAware ADS-B
Thu 08:38:12 PM 51.5190 -103.6090 54° Northeast 523 602 37,000  Level FlightAware ADS-B
Thu 08:38:58 PM 51.5750 -103.4850 54° Northeast 523 602 37,000  Level FlightAware ADS-B
Thu 08:39:34 PM 51.6180 -103.3890 54° Northeast 523 602 37,000  Level FlightAware ADS-B
Thu 08:40:10 PM 51.6620 -103.2930 54° Northeast 523 602 37,000  Level FlightAware ADS-B
Thu 08:40:46 PM 51.7050 -103.1960 54° Northeast 523 602 37,000  Level FlightAware ADS-B
Thu 08:41:35 PM 51.7640 -103.0640 54° Northeast 523 602 37,000  Level FlightAware ADS-B
Thu 08:42:11 PM 51.8080 -102.9670 54° Northeast 523 602 37,000  Level FlightAware ADS-B
Thu 08:42:59 PM 51.8660 -102.8380 54° Northeast 523 602 37,000  Level FlightAware ADS-B
Thu 08:43:35 PM 51.9100 -102.7410 54° Northeast 523 602 37,000  Level FlightAware ADS-B
Thu 08:44:23 PM 51.9680 -102.6110 54° Northeast 523 602 37,000  Level FlightAware ADS-B
Thu 08:44:59 PM 52.0110 -102.5140 54° Northeast 523 602 37,000  Level FlightAware ADS-B
Thu 08:45:35 PM 52.0550 -102.4170 54° Northeast 523 602 37,000  Level FlightAware ADS-B
Thu 08:46:25 PM 52.1150 -102.2810 54° Northeast 523 602 37,000  Level FlightAware ADS-B
Thu 08:47:39 PM 52.3333 -101.7000 54° Northeast 520 598 37,000  Level Winnipeg Center
Thu 08:48:39 PM 52.4000 -101.5000 61° Northeast 520 598 37,000  Level Winnipeg Center
Thu 08:49:39 PM 52.4833 -101.3167 53° Northeast 520 598 37,000  Level Winnipeg Center
Thu 08:50:39 PM 52.5500 -101.1000 63° Northeast 510 587 37,000  Level Winnipeg Center
Thu 08:51:39 PM 52.6500 -100.8833 53° Northeast 520 598 37,000  Level Winnipeg Center
Thu 08:52:39 PM 52.7167 -100.7000 59° Northeast 520 598 37,000  Level Winnipeg Center
Thu 08:53:39 PM 52.7833 -100.5167 59° Northeast 520 598 37,000  Level Winnipeg Center
Thu 08:54:39 PM 52.8833 -100.3000 53° Northeast 510 587 37,000  Level Winnipeg Center
Thu 08:55:39 PM 52.9500 -100.1000 61° Northeast 520 598 37,000  Level Winnipeg Center
Thu 08:56:39 PM 53.0333 -99.8833 57° Northeast 530 610 37,000  Level Winnipeg Center
Thu 08:57:39 PM 53.1000 -99.7000 59° Northeast 510 587 37,000  Level Winnipeg Center
Thu 08:58:39 PM 53.1833 -99.4833 57° Northeast 540 621 37,000  Level Winnipeg Center
Thu 08:59:39 PM 53.2500 -99.2667 63° Northeast 520 598 37,000  Level Winnipeg Center
Thu 09:00:39 PM 53.3333 -99.0333 59° Northeast 520 598 37,000  Level Winnipeg Center
Thu 09:01:39 PM 53.4000 -98.8500 59° Northeast 520 598 37,000  Level Winnipeg Center
Thu 09:02:39 PM 53.4833 -98.6167 59° Northeast 510 587 37,000  Level Winnipeg Center
Thu 09:03:39 PM 53.5500 -98.4333 58° Northeast 540 621 37,000  Level Winnipeg Center
Thu 09:04:39 PM 53.6167 -98.2000 64° Northeast 520 598 37,000  Level Winnipeg Center
Thu 09:05:39 PM 53.6833 -97.9833 62° Northeast 530 610 37,000  Level Winnipeg Center
Thu 09:06:39 PM 53.7667 -97.7833 55° Northeast 530 610 37,000  Level Winnipeg Center
Thu 09:07:39 PM 53.8500 -97.5667 57° Northeast 520 598 37,000  Level Winnipeg Center
Thu 09:08:39 PM 53.9167 -97.3333 64° Northeast 520 598 37,000  Level Winnipeg Center
Thu 09:09:39 PM 53.9833 -97.1000 64° Northeast 520 598 37,000  Level Winnipeg Center
Thu 09:10:39 PM 54.0500 -96.9000 60° Northeast 510 587 37,000  Level Winnipeg Center
Thu 09:11:39 PM 54.1333 -96.6833 57° Northeast 520 598 37,000  Level Winnipeg Center
Thu 09:12:39 PM 54.2000 -96.4833 60° Northeast 520 598 37,000  Level Winnipeg Center
Thu 09:13:39 PM 54.2667 -96.2500 64° Northeast 520 598 37,000  Level Winnipeg Center
Thu 09:14:39 PM 54.3333 -96.0500 60° Northeast 530 610 37,000  Level Winnipeg Center
Thu 09:15:39 PM 54.4000 -95.8167 64° Northeast 520 598 37,000  Level Winnipeg Center
Thu 09:16:39 PM 54.4667 -95.5833 64° Northeast 530 610 37,000  Level Winnipeg Center
Thu 09:17:39 PM 54.5333 -95.3500 64° Northeast 530 610 37,000  Level Winnipeg Center
Thu 09:18:39 PM 54.6000 -95.1500 60° Northeast 530 610 37,000  Level Winnipeg Center
Thu 09:19:39 PM 54.6667 -94.9000 65° Northeast 530 610 37,000  Level Winnipeg Center
Thu 09:20:39 PM 54.7500 -94.6667 58° Northeast 530 610 37,000  Level Winnipeg Center
Thu 09:21:39 PM 54.8000 -94.4667 66° East 530 610 37,000  Level Winnipeg Center
Thu 09:22:39 PM 54.9000 -94.2500 51° Northeast 510 587 37,000  Level Winnipeg Center
Thu 09:23:39 PM 55.0000 -94.1000 41° Northeast 510 587 37,000  Level Winnipeg Center
Thu 09:24:39 PM 55.1167 -93.9500 36° Northeast 500 575 37,000  Level Winnipeg Center
Thu 09:25:39 PM 55.2333 -93.8000 36° Northeast 500 575 37,000  Level Winnipeg Center
Thu 09:26:39 PM 55.3333 -93.6333 43° Northeast 500 575 37,000  Level Winnipeg Center
Thu 09:27:39 PM 55.4500 -93.5167 30° Northeast 500 575 37,000  Level Winnipeg Center
Thu 09:28:39 PM 55.5667 -93.3500 39° Northeast 510 587 37,000  Level Winnipeg Center
Thu 09:29:39 PM 55.6833 -93.2000 36° Northeast 510 587 37,000  Level Winnipeg Center
Thu 09:30:39 PM 55.7833 -93.0333 43° Northeast 510 587 37,000  Level Winnipeg Center
Thu 09:31:39 PM 55.8833 -92.8667 43° Northeast 490 564 37,000  Level Winnipeg Center
Thu 09:32:39 PM 55.9833 -92.6500 50° Northeast 520 598 37,000  Level Winnipeg Center
Thu 09:33:39 PM 56.0333 -92.4333 67° East 530 610 37,000  Level Winnipeg Center
Thu 09:34:39 PM 56.1167 -92.1833 59° Northeast 530 610 37,000  Level Winnipeg Center
Thu 09:35:39 PM 56.1667 -91.9333 70° East 540 621 37,000  Level Winnipeg Center
Thu 09:36:39 PM 56.2333 -91.6833 64° Northeast 530 610 37,000  Level Winnipeg Center
Thu 09:37:39 PM 56.3000 -91.4667 61° Northeast 530 610 37,000  Level Winnipeg Center
Thu 09:38:39 PM 56.3500 -91.2167 70° East 530 610 37,000  Level Winnipeg Center
Thu 09:39:39 PM 56.4167 -90.9667 64° Northeast 540 621 37,000  Level Winnipeg Center
Thu 09:40:39 PM 56.4667 -90.7167 70° East 530 610 37,000  Level Winnipeg Center
Thu 09:41:39 PM 56.5333 -90.4667 64° Northeast 520 598 37,000  Level Winnipeg Center
Thu 09:42:39 PM 56.6000 -90.2333 62° Northeast 530 610 37,000  Level Winnipeg Center
Thu 09:43:39 PM 56.6500 -89.9833 70° East 530 610 37,000  Level Winnipeg Center
Thu 09:44:39 PM 56.7000 -89.7667 67° East 520 598 37,000  Level Winnipeg Center
Thu 09:45:39 PM 56.7667 -89.5000 65° Northeast 530 610 37,000  Level Winnipeg Center
Thu 09:46:39 PM 56.8167 -89.2167 72° East 540 621 37,000  Level Winnipeg Center
Thu 09:47:39 PM 56.8667 -88.9833 69° East 520 598 37,000  Level Winnipeg Center
Thu 09:48:39 PM 56.9500 -88.7333 58° Northeast 530 610 37,000  Level Winnipeg Center
Thu 09:49:39 PM 57.0000 -88.5000 68° East 530 610 37,000  Level Winnipeg Center
Thu 09:50:39 PM 57.0500 -88.2500 70° East 530 610 37,000  Level Winnipeg Center
Thu 09:51:52 PM 57.1000 -87.8833 76° East 530 610 37,000  Level Edmonton Center
Thu 09:52:52 PM 57.1500 -87.6333 70° East 520 598 37,000  Level Edmonton Center
Thu 09:53:52 PM 57.2000 -87.3833 70° East 530 610 37,000  Level Edmonton Center
Thu 09:54:52 PM 57.2500 -87.1333 70° East 520 598 37,000  Level Edmonton Center
Thu 09:55:52 PM 57.3000 -86.8500 72° East 520 598 37,000  Level Edmonton Center
Thu 09:56:52 PM 57.3667 -86.6000 64° Northeast 530 610 37,000  Level Edmonton Center
Thu 09:57:52 PM 57.4000 -86.3833 74° East 530 610 37,000  Level Edmonton Center
Thu 09:58:52 PM 57.4500 -86.1333 70° East 530 610 37,000  Level Edmonton Center
Thu 09:59:52 PM 57.5167 -85.8667 65° Northeast 520 598 37,000  Level Edmonton Center
Thu 10:00:52 PM 57.5500 -85.6000 77° East 520 598 37,000  Level Edmonton Center
Thu 10:01:52 PM 57.6000 -85.3167 72° East 530 610 37,000  Level Edmonton Center
Thu 10:02:52 PM 57.6500 -85.0667 69° East 530 610 37,000  Level Edmonton Center
Thu 10:03:52 PM 57.6833 -84.8167 76° East 530 610 37,000  Level Edmonton Center
Thu 10:04:52 PM 57.7333 -84.5500 71° East 530 610 37,000  Level Edmonton Center
Thu 10:05:52 PM 57.8000 -84.2833 65° Northeast 530 610 37,000  Level Edmonton Center
Thu 10:06:52 PM 57.8333 -84.0333 76° East 530 610 37,000  Level Edmonton Center
Thu 10:07:52 PM 57.8833 -83.7333 72° East 530 610 37,000  Level Edmonton Center
Thu 10:08:52 PM 57.9167 -83.4833 76° East 530 610 37,000  Level Edmonton Center
Thu 10:09:52 PM 57.9833 -83.2000 66° East 530 610 37,000  Level Edmonton Center
Thu 10:10:52 PM 58.0167 -82.9500 76° East 540 621 37,000  Level Edmonton Center
Thu 10:11:52 PM 58.0500 -82.6500 78° East 540 621 37,000  Level Edmonton Center
Thu 10:12:52 PM 58.1167 -82.3833 65° Northeast 540 621 37,000  Level Edmonton Center
Thu 10:13:52 PM 58.1500 -82.1167 77° East 540 621 37,000  Level Edmonton Center
Thu 10:14:52 PM 58.1833 -81.8167 78° East 540 621 37,000  Level Edmonton Center
Thu 10:15:52 PM 58.2333 -81.5500 70° East 540 621 37,000  Level Edmonton Center
Thu 10:16:52 PM 58.2833 -81.2833 70° East 540 621 37,000  Level Edmonton Center
Thu 10:17:52 PM 58.3167 -81.0167 77° East 540 621 37,000  Level Edmonton Center
Thu 10:18:52 PM 58.3500 -80.7500 76° East 540 621 37,000  Level Edmonton Center
Thu 10:19:52 PM 58.4000 -80.4500 72° East 540 621 37,000  Level Edmonton Center
Thu 10:20:52 PM 58.4333 -80.1833 76° East 540 621 37,000  Level Edmonton Center
Thu 10:21:52 PM 58.4667 -79.9167 76° East 540 621 37,000  Level Edmonton Center
Thu 10:22:52 PM 58.5167 -79.6333 71° East 540 621 37,000  Level Edmonton Center
Thu 10:23:52 PM 58.5667 -79.3500 71° East 540 621 37,000  Level Edmonton Center
Thu 10:24:52 PM 58.6167 -79.1000 69° East 550 633 37,000  Level Edmonton Center
Thu 10:25:52 PM 58.6833 -78.8000 67° East 550 633 37,000  Level Edmonton Center
Thu 10:26:52 PM 58.7333 -78.5167 71° East 550 633 37,000  Level Edmonton Center
Thu 10:27:52 PM 58.7833 -78.2333 71° East 550 633 37,000  Level Edmonton Center
Thu 10:28:52 PM 58.8167 -77.9500 77° East 550 633 37,000  Level Edmonton Center
Thu 10:29:52 PM 58.8667 -77.6667 71° East 550 633 37,000  Level Edmonton Center
Thu 10:30:52 PM 58.9167 -77.4167 69° East 550 633 37,000  Level Edmonton Center
Thu 10:31:52 PM 58.9833 -77.1167 67° East 550 633 37,000  Level Edmonton Center
Thu 10:32:52 PM 59.0167 -76.8333 77° East 550 633 37,000  Level Edmonton Center
Thu 10:33:52 PM 59.0667 -76.5333 72° East 560 644 37,000  Level Edmonton Center
Thu 10:34:52 PM 59.1000 -76.2500 77° East 560 644 37,000  Level Edmonton Center
Thu 10:35:52 PM 59.1667 -75.9500 66° East 560 644 37,000  Level Edmonton Center
Thu 10:36:52 PM 59.2167 -75.6833 70° East 560 644 37,000  Level Edmonton Center
Thu 10:37:52 PM 59.2500 -75.4000 77° East 560 644 37,000  Level Edmonton Center
Thu 10:38:52 PM 59.2833 -75.1000 78° East 560 644 37,000  Level Edmonton Center
Thu 10:39:52 PM 59.3500 -74.8000 66° East 560 644 37,000  Level Edmonton Center
Thu 10:40:52 PM 59.3833 -74.5000 78° East 560 644 37,000  Level Edmonton Center
Thu 10:41:52 PM 59.4167 -74.2167 77° East 560 644 37,000  Level Edmonton Center
Thu 10:42:52 PM 59.4500 -73.9167 78° East 560 644 37,000  Level Edmonton Center
Thu 10:43:52 PM 59.5000 -73.6167 72° East 570 656 37,000  Level Edmonton Center
Thu 10:44:45 PM 59.5833 -73.5500 22° Northeast 570 656 37,000  Level Gander Center
Thu 10:45:45 PM 59.6333 -73.2333 73° East 570 656 37,000  Level Gander Center
Thu 10:47:14 PM 59.6833 -72.7333 79° East 560 644 37,000  Level Montreal Center
Thu 10:48:14 PM 59.7333 -72.4333 72° East 560 644 37,000  Level Montreal Center
Thu 10:49:14 PM 59.7667 -72.1167 78° East 570 656 37,000  Level Montreal Center
Thu 10:50:14 PM 59.8000 -71.8167 77° East 570 656 37,000  Level Montreal Center
Thu 10:51:14 PM 59.8333 -71.5167 77° East 570 656 37,000  Level Montreal Center
Thu 10:51:45 PM 59.8667 -71.4167 56° Northeast 570 656 37,000  Level Gander Center
Thu 10:52:45 PM 59.8833 -71.1167 84° East 570 656 37,000  Level Gander Center
Thu 10:53:45 PM 59.9167 -70.8000 78° East 570 656 37,000  Level Gander Center
Thu 10:54:45 PM 59.9667 -70.5000 71° East 560 644 37,000  Level Gander Center
Thu 10:57:00 PM 60.0167 -70.0049 78° East  Level FlightAware Approximate
Thu 11:00:45 PM 60.1500 -68.6833 81° East 570 656 37,000  Level Gander Center
Thu 11:01:45 PM 60.1833 -68.3833 77° East 570 656 37,000  Level Gander Center
Thu 11:02:45 PM 60.2000 -68.0833 83° East 560 644 37,000  Level Gander Center
Thu 11:03:45 PM 60.2333 -67.7833 77° East 560 644 37,000  Level Gander Center
Thu 11:04:00 PM 60.1967 -68.0290 79° East  Level FlightAware Approximate
Thu 11:04:45 PM 60.2667 -67.4500 78° East 560 644 37,000  Level Gander Center
Thu 11:05:00 PM 60.2200 -67.7450 80° East  Level FlightAware Approximate
Thu 11:05:45 PM 60.3000 -67.1167 78° East 560 644 37,000  Level Gander Center
Thu 11:06:00 PM 60.2427 -67.4606 81° East  Level FlightAware Approximate
Thu 11:06:45 PM 60.3167 -66.8333 83° East 560 644 37,000  Level Gander Center
Thu 11:07:45 PM 60.3333 -66.5333 83° East 560 644 37,000  Level Gander Center
Thu 11:08:37 PM 60.3667 -66.2667 76° East 560 644 37,000  Level Gander Center
Thu 11:09:14 PM 60.3667 -65.9833 90° East 560 644 37,000  Level Montreal Center
Thu 11:09:45 PM 60.3833 -65.9000 68° East 550 633 37,000  Level Gander Center
Thu 11:10:45 PM 60.4167 -65.6000 77° East 560 644 37,000  Level Gander Center
Thu 11:11:45 PM 60.4500 -65.3000 77° East 560 644 37,000  Level Gander Center
Thu 11:12:37 PM 60.4500 -65.0167 90° East 550 633 37,000  Level Gander Center
Thu 11:13:37 PM 60.4667 -64.6833 84° East 560 644 37,000  Level Gander Center
Thu 11:14:37 PM 60.5000 -64.3833 77° East 560 644 37,000  Level Gander Center
Thu 11:15:14 PM 60.5000 -64.1667 90° East 560 644 37,000  Level Montreal Center
Thu 11:15:45 PM 60.5167 -64.0500 74° East 560 644 37,000  Level Gander Center
Thu 11:16:37 PM 60.5333 -63.7833 83° East 560 644 37,000  Level Gander Center
Thu 11:17:37 PM 60.5500 -63.4500 84° East 550 633 37,000  Level Gander Center
Thu 11:18:14 PM 60.5667 -63.2000 82° East 560 644 37,000  Level Montreal Center
Thu 11:18:45 PM 60.5667 -63.1167 90° East 560 644 37,000  Level Gander Center
Thu 11:19:45 PM 60.5833 -62.8000 84° East 560 644 37,000  Level Gander Center
Thu 11:20:45 PM 60.6167 -62.4667 78° East 560 644 37,000  Level Gander Center
Thu 11:21:37 PM 60.6333 -62.2000 83° East 560 644 37,000 135 Level Gander Center
Thu 11:22:14 PM 60.6500 -61.9500 82° East 560 644 37,200 433 Climbing Montreal Center
Thu 11:23:14 PM 60.7000 -61.6500 71° East 550 633 37,700 636 Climbing Montreal Center
Thu 11:24:45 PM 60.7833 -61.2833 65° Northeast 540 621 38,800 517 Climbing Gander Center
Thu 11:25:45 PM 60.8167 -60.9833 77° East 530 610 39,000 100 Climbing Gander Center
Thu 11:26:45 PM 60.8667 -60.7000 70° East 540 621 39,000  Level Gander Center
Thu 11:27:37 PM 60.9167 -60.4333 69° East 540 621 39,000  Level Gander Center
Thu 11:28:37 PM 60.9500 -60.1500 76° East 540 621 39,000  Level Gander Center
Thu 11:29:37 PM 60.9833 -59.8500 77° East 540 621 39,000  Level Gander Center
Thu 11:30:14 PM 60.9833 -59.6167 90° East 530 610 39,000  Level Montreal Center
Thu 11:31:14 PM 60.9833 -59.2667 90° East 540 621 39,000  Level Montreal Center
Thu 11:31:45 PM 61.0167 -59.1833 50° Northeast 540 621 39,000  Level Gander Center
Thu 11:32:37 PM 61.0167 -58.9500 90° East 540 621 39,000  Level Gander Center
Thu 11:33:37 PM 61.0167 -58.6500 90° East 540 621 39,000  Level Gander Center
Thu 11:34:37 PM 61.0333 -58.3333 84° East 540 621 39,000  Level Gander Center
Thu 11:35:37 PM 61.0500 -57.9833 84° East 540 621 39,000  Level Gander Center
Thu 11:36:37 PM 61.0500 -57.6833 90° East 550 633 39,000  Level Gander Center
Thu 11:37:45 PM 61.0667 -57.3333 84° East 550 633 39,000  Level Gander Center
Thu 11:38:45 PM 61.0667 -57.0167 90° East 550 633 39,000  Level Gander Center
Thu 11:39:45 PM 61.0500 -56.7167 96° East 550 633 39,000  Level Gander Center
Thu 11:40:37 PM 61.0667 -56.4333 83° East 550 633 39,000  Level Gander Center
Thu 11:41:37 PM 61.0667 -56.1333 90° East 540 621 39,000  Level Gander Center
Thu 11:42:37 PM 61.0833 -55.8167 84° East 540 621 39,000  Level Gander Center
Thu 11:43:37 PM 61.0833 -55.5000 90° East 540 621 39,000  Level Gander Center
Thu 11:44:37 PM 61.0667 -55.2000 96° East 550 633 39,000  Level Gander Center
Thu 11:45:37 PM 61.0667 -54.8833 90° East 540 621 39,000  Level Gander Center
Thu 11:46:37 PM 61.0667 -54.5833 90° East 540 621 39,000  Level Gander Center
Thu 11:47:37 PM 61.0667 -54.2667 90° East 540 621 39,000  Level Gander Center
Thu 11:48:37 PM 61.0667 -53.9667 90° East 540 621 39,000  Level Gander Center
Thu 11:49:37 PM 61.0500 -53.6500 96° East 540 621 39,000  Level Gander Center
Thu 11:50:37 PM 61.0667 -53.3833 83° East 540 621 39,000  Level Gander Center
Thu 11:51:37 PM 61.0667 -53.0667 90° East 540 621 39,000  Level Gander Center
Thu 11:52:37 PM 61.0500 -52.7500 96° East 530 610 39,000  Level Gander Center
Thu 11:53:37 PM 61.0500 -52.4500 90° East 530 610 39,000  Level Gander Center
Thu 11:54:37 PM 61.0333 -52.1333 96° East 530 610 39,000  Level Gander Center
Thu 11:55:37 PM 61.0333 -51.8333 90° East 530 610 39,000  Level Gander Center
Thu 11:56:37 PM 61.0333 -51.5500 90° East 530 610 39,000  Level Gander Center
Thu 11:57:37 PM 61.0167 -51.2500 96° East 530 610 39,000  Level Gander Center
Thu 11:58:37 PM 61.0167 -50.9333 90° East 530 610 39,000  Level Gander Center
Thu 11:59:37 PM 61.0000 -50.6333 96° East 530 610 39,000  Level Gander Center
Fri 12:00:37 AM 60.9833 -50.3500 97° East 530 610 39,000  Level Gander Center
Fri 12:01:37 AM 60.9833 -50.0500 90° East 530 610 39,000  Level Gander Center
Fri 12:02:37 AM 61.0000 -49.7333 84° East 530 610 39,000  Level Gander Center
Fri 12:03:37 AM 61.0000 -49.4167 90° East 520 598 39,000  Level Gander Center
Fri 12:04:37 AM 61.0167 -49.1333 83° East 530 610 39,000  Level Gander Center
Fri 12:05:37 AM 61.0167 -48.8167 90° East 520 598 39,000  Level Gander Center
Fri 12:06:37 AM 61.0167 -48.5500 90° East 520 598 39,000  Level Gander Center
Fri 12:07:37 AM 61.0333 -48.2667 83° East 520 598 39,000  Level Gander Center
Fri 12:08:37 AM 61.0333 -47.9500 90° East 520 598 39,000  Level Gander Center
Fri 12:09:37 AM 61.0500 -47.6667 83° East 520 598 39,000  Level Gander Center
Fri 12:10:37 AM 61.0500 -47.3500 90° East 520 598 39,000  Level Gander Center
Fri 12:11:37 AM 61.0500 -47.0667 90° East 520 598 39,000  Level Gander Center
Fri 12:12:37 AM 61.0500 -46.7500 90° East 520 598 39,000  Level Gander Center
Fri 12:13:37 AM 61.0500 -46.4667 90° East 520 598 39,000  Level Gander Center
Fri 12:14:37 AM 61.0500 -46.1500 90° East 520 598 39,000  Level Gander Center
Fri 12:15:37 AM 61.0667 -45.8833 83° East 520 598 39,000  Level Gander Center
Fri 12:16:37 AM 61.0500 -45.5667 96° East 520 598 39,000  Level Gander Center
Fri 12:17:37 AM 61.0667 -45.2833 83° East 520 598 39,000  Level Gander Center
Fri 12:18:37 AM 61.0667 -45.0000 90° East 520 598 39,000  Level Gander Center
Fri 12:19:37 AM 61.0500 -44.6833 96° East 520 598 39,000  Level Gander Center
Fri 12:20:37 AM 61.0500 -44.4000 90° East 520 598 39,000  Level Gander Center
Fri 12:21:37 AM 61.0500 -44.0833 90° East 520 598 39,000  Level Gander Center
Fri 12:22:37 AM 61.0667 -43.8000 83° East 520 598 39,000  Level Gander Center
Fri 12:23:37 AM 61.0667 -43.5167 90° East 520 598 39,000  Level Gander Center
Fri 12:24:37 AM 61.0667 -43.2000 90° East 510 587 39,000  Level Gander Center
Fri 12:25:37 AM 61.0500 -42.9167 97° East 520 598 39,000  Level Gander Center
Fri 12:26:37 AM 61.0500 -42.6500 90° East 520 598 39,000  Level Gander Center
Fri 12:27:37 AM 61.0500 -42.3333 90° East 520 598 39,000  Level Gander Center
Fri 12:28:37 AM 61.0333 -42.0500 97° East 520 598 39,000  Level Gander Center
Fri 12:29:37 AM 61.0333 -41.7333 90° East 520 598 39,000  Level Gander Center
Fri 12:30:37 AM 61.0167 -41.4500 97° East 510 587 39,000  Level Gander Center
Fri 12:31:37 AM 61.0167 -41.1833 90° East 510 587 39,000  Level Gander Center
Fri 12:32:37 AM 61.0167 -40.9000 90° East 510 587 39,000  Level Gander Center
Fri 12:33:37 AM 61.0000 -40.5833 96° East 510 587 39,000  Level Gander Center
Fri 12:34:37 AM 60.9833 -40.3000 97° East 510 587 39,000  Level Gander Center
Fri 12:35:37 AM 60.9833 -40.0333 90° East 510 587 39,000  Level Gander Center
Fri 12:36:37 AM 60.9500 -39.7333 103° East 520 598 39,000  Level Gander Center
Fri 12:37:37 AM 60.9500 -39.4500 90° East 520 598 39,000  Level Gander Center
Fri 12:38:37 AM 60.9333 -39.1333 96° East 520 598 39,000  Level Gander Center
Fri 12:39:37 AM 60.9000 -38.8667 104° East 520 598 39,000  Level Gander Center
Fri 12:40:37 AM 60.8833 -38.5667 96° East 520 598 39,000  Level Gander Center
Fri 12:41:37 AM 60.8500 -38.3000 104° East 520 598 39,000  Level Gander Center
Fri 12:42:37 AM 60.8333 -37.9833 96° East 520 598 39,000  Level Gander Center
Fri 12:43:37 AM 60.8333 -37.7167 90° East 520 598 39,000  Level Gander Center
Fri 12:44:37 AM 60.7833 -37.4167 109° East 520 598 39,000  Level Gander Center
Fri 12:45:37 AM 60.7833 -37.1500 90° East 520 598 39,000  Level Gander Center
Fri 12:46:37 AM 60.7333 -36.8500 109° East 520 598 39,000  Level Gander Center
Fri 12:47:37 AM 60.7333 -36.5667 90° East 520 598 39,000  Level Gander Center
Fri 12:48:37 AM 60.6833 -36.2833 110° East 520 598 39,000  Level Gander Center
Fri 12:50:37 AM 60.6500 -35.7000 96° East 520 598 39,000  Level Gander Center
Fri 12:51:37 AM 60.6167 -35.4333 104° East 520 598 39,000  Level Gander Center
Fri 12:52:37 AM 60.6000 -35.1667 97° East 520 598 39,000  Level Gander Center
Fri 12:54:00 AM 60.5667 -34.7699 100° East  Level FlightAware Approximate
Fri 12:55:20 AM 60.5167 -34.4167 100° East 510 587 39,000  Level Gander Center
Fri 12:57:00 AM 60.4884 -33.9343 102° East  Level FlightAware Approximate
Fri 01:04:00 AM 60.2601 -31.9638 102° East  Level FlightAware Approximate
Fri 01:05:00 AM 60.2252 -31.6846 104° East  Level FlightAware Approximate
Fri 01:06:00 AM 60.1896 -31.4060 104° East  Level FlightAware Approximate
Fri 01:07:00 AM 60.1535 -31.1280 105° East  Level FlightAware Approximate
Fri 01:08:00 AM 60.1167 -30.8506 105° East  Level FlightAware Approximate
Fri 01:09:00 AM 60.0794 -30.5739 105° East  Level FlightAware Approximate
Fri 01:10:00 AM 60.0416 -30.2977 105° East  Level FlightAware Approximate
Fri 01:11:00 AM 60.0031 -30.0222 105° East  Level FlightAware Approximate
Fri 01:12:00 AM 59.9842 -29.7392 97° East  Level FlightAware Approximate
Fri 01:13:00 AM 59.9664 -29.4558 97° East  Level FlightAware Approximate
Fri 01:14:00 AM 59.9480 -29.1728 97° East  Level FlightAware Approximate
Fri 01:15:00 AM 59.9289 -28.8900 98° East  Level FlightAware Approximate
Fri 01:16:00 AM 59.9093 -28.6075 98° East  Level FlightAware Approximate
Fri 01:17:00 AM 59.8891 -28.3254 98° East  Level FlightAware Approximate
Fri 01:18:00 AM 59.8683 -28.0437 98° East  Level FlightAware Approximate
Fri 01:19:00 AM 59.8468 -27.7623 99° East  Level FlightAware Approximate
Fri 01:20:00 AM 59.8248 -27.4812 99° East  Level FlightAware Approximate
Fri 01:21:00 AM 59.8022 -27.2006 99° East  Level FlightAware Approximate
Fri 01:22:00 AM 59.7790 -26.9203 99° East  Level FlightAware Approximate
Fri 01:23:00 AM 59.7551 -26.6404 99° East  Level FlightAware Approximate
Fri 01:24:00 AM 59.7307 -26.3610 100° East  Level FlightAware Approximate
Fri 01:25:00 AM 59.7057 -26.0819 100° East  Level FlightAware Approximate
Fri 01:26:00 AM 59.6801 -25.8033 100° East  Level FlightAware Approximate
Fri 01:27:00 AM 59.6540 -25.5250 100° East  Level FlightAware Approximate
Fri 01:28:00 AM 59.6272 -25.2473 101° East  Level FlightAware Approximate
Fri 01:29:00 AM 59.5998 -24.9700 101° East  Level FlightAware Approximate
Fri 01:30:00 AM 59.5719 -24.6931 101° East  Level FlightAware Approximate
Fri 01:31:00 AM 59.5434 -24.4167 101° East  Level FlightAware Approximate
Fri 01:32:00 AM 59.5143 -24.1408 102° East  Level FlightAware Approximate
Fri 01:33:00 AM 59.4846 -23.8653 102° East  Level FlightAware Approximate
Fri 01:34:00 AM 59.4543 -23.5903 102° East  Level FlightAware Approximate
Fri 01:35:00 AM 59.4235 -23.3159 102° East  Level FlightAware Approximate
Fri 01:36:00 AM 59.3920 -23.0419 103° East  Level FlightAware Approximate
Fri 01:37:00 AM 59.3601 -22.7685 103° East  Level FlightAware Approximate
Fri 01:38:00 AM 59.3275 -22.4956 103° East  Level FlightAware Approximate
Fri 01:39:00 AM 59.2944 -22.2232 103° East  Level FlightAware Approximate
Fri 01:40:00 AM 59.2607 -21.9513 104° East  Level FlightAware Approximate
Fri 01:41:00 AM 59.2264 -21.6800 104° East  Level FlightAware Approximate
Fri 01:42:00 AM 59.1916 -21.4092 104° East  Level FlightAware Approximate
Fri 01:43:00 AM 59.1562 -21.1390 104° East  Level FlightAware Approximate
Fri 01:44:00 AM 59.1202 -20.8693 104° East  Level FlightAware Approximate
Fri 01:45:00 AM 59.0837 -20.6002 105° East  Level FlightAware Approximate
Fri 01:46:00 AM 59.0467 -20.3317 105° East  Level FlightAware Approximate
Fri 01:47:00 AM 59.0090 -20.0638 105° East  Level FlightAware Approximate
Fri 01:48:00 AM 58.9694 -19.7973 106° East  Level FlightAware Approximate
Fri 01:49:00 AM 58.9288 -19.5316 106° East  Level FlightAware Approximate
Fri 01:50:00 AM 58.8876 -19.2666 107° East  Level FlightAware Approximate
Fri 01:51:00 AM 58.8459 -19.0022 107° East  Level FlightAware Approximate
Fri 01:52:00 AM 58.8036 -18.7384 107° East  Level FlightAware Approximate
Fri 01:53:00 AM 58.7608 -18.4753 107° East  Level FlightAware Approximate
Fri 01:54:00 AM 58.7175 -18.2129 108° East  Level FlightAware Approximate
Fri 01:55:00 AM 58.6736 -17.9511 108° East  Level FlightAware Approximate
Fri 01:56:00 AM 58.6292 -17.6900 108° East  Level FlightAware Approximate
Fri 01:57:00 AM 58.5843 -17.4295 108° East  Level FlightAware Approximate
Fri 01:58:00 AM 58.5389 -17.1697 108° East  Level FlightAware Approximate
Fri 01:59:00 AM 58.4929 -16.9106 109° East  Level FlightAware Approximate
Fri 02:00:00 AM 58.4464 -16.6522 109° East  Level FlightAware Approximate
Fri 02:01:00 AM 58.3994 -16.3944 109° East  Level FlightAware Approximate
Fri 02:02:00 AM 58.3519 -16.1374 109° East  Level FlightAware Approximate
Fri 02:03:00 AM 58.3038 -15.8810 110° East  Level FlightAware Approximate
Fri 02:04:00 AM 58.2553 -15.6253 110° East  Level FlightAware Approximate
Fri 02:05:00 AM 58.2062 -15.3704 110° East  Level FlightAware Approximate
Fri 02:06:00 AM 58.1567 -15.1161 110° East  Level FlightAware Approximate
Fri 02:07:00 AM 58.1066 -14.8626 110° East  Level FlightAware Approximate
Fri 02:08:00 AM 58.0560 -14.6097 111° Southeast  Level FlightAware Approximate
Fri 02:09:00 AM 58.0050 -14.3576 111° Southeast  Level FlightAware Approximate
Fri 02:10:00 AM 57.9534 -14.1062 111° Southeast  Level FlightAware Approximate
Fri 02:11:00 AM 57.9013 -13.8556 111° Southeast  Level FlightAware Approximate
Fri 02:12:00 AM 57.8488 -13.6056 111° Southeast  Level FlightAware Approximate
Fri 02:13:00 AM 57.7957 -13.3564 112° Southeast  Level FlightAware Approximate
Fri 02:14:00 AM 57.7422 -13.1080 112° Southeast  Level FlightAware Approximate
Fri 02:15:00 AM 57.6882 -12.8602 112° Southeast  Level FlightAware Approximate
Fri 02:16:00 AM 57.6337 -12.6132 112° Southeast  Level FlightAware Approximate
Fri 02:17:00 AM 57.5787 -12.3670 113° Southeast  Level FlightAware Approximate
Fri 02:18:00 AM 57.5233 -12.1215 113° Southeast  Level FlightAware Approximate
Fri 02:19:00 AM 57.4674 -11.8767 113° Southeast  Level FlightAware Approximate
Fri 02:20:00 AM 57.4109 -11.6327 113° Southeast  Level FlightAware Approximate
Fri 02:21:00 AM 57.3541 -11.3895 113° Southeast  Level FlightAware Approximate
Fri 02:22:00 AM 57.2967 -11.1470 114° Southeast  Level FlightAware Approximate
Fri 02:23:00 AM 57.2389 -10.9053 114° Southeast  Level FlightAware Approximate
Fri 02:24:00 AM 57.1807 -10.6643 114° Southeast  Level FlightAware Approximate
Fri 02:25:00 AM 57.1219 -10.4241 114° Southeast  Level FlightAware Approximate
Fri 02:26:00 AM 57.0628 -10.1847 114° Southeast  Level FlightAware Approximate
Fri 02:27:00 AM 57.0032 -9.9458 114° Southeast  Level FlightAware Approximate
Fri 02:28:00 AM 56.9437 -9.7074 115° Southeast  Level FlightAware Approximate
Fri 02:29:00 AM 56.8838 -9.4698 115° Southeast  Level FlightAware Approximate
Fri 02:29:07 AM 56.8890 -9.5830 115° Southeast 528 608 39,000  Level FlightAware ADS-B
Fri 02:29:50 AM 56.8550 -9.4070 109° East 530 610 39,000  Level FlightAware ADS-B
Fri 02:30:36 AM 56.8170 -9.2060 109° East 529 609 39,000  Level FlightAware ADS-B
Fri 02:31:21 AM 56.7800 -9.0200 110° East 529 609 39,000  Level FlightAware ADS-B
Fri 02:31:56 AM 56.7505 -8.8689 110° East 480 552 39,000  Level FlightAware UK
Fri 02:32:02 AM 56.7470 -8.8490 110° East 531 611 39,000  Level FlightAware ADS-B
Fri 02:32:46 AM 56.7100 -8.6630 110° East 530 610 39,000  Level FlightAware ADS-B
Fri 02:33:26 AM 56.6751 -8.4900 110° East 482 555 39,000  Level FlightAware UK
Fri 02:33:26 AM 56.6760 -8.4970 110° East 530 610 39,000  Level FlightAware ADS-B
Fri 02:33:56 AM 56.6497 -8.3653 110° East 480 552 39,000  Level FlightAware UK
Fri 02:34:06 AM 56.6430 -8.3330 110° East 527 606 39,000  Level FlightAware ADS-B
Fri 02:34:51 AM 56.6070 -8.1590 111° Southeast 526 605 39,000  Level FlightAware ADS-B
Fri 02:35:26 AM 56.5734 -7.9914 111° Southeast 486 559 39,000  Level FlightAware UK
Fri 02:35:36 AM 56.5670 -7.9610 111° Southeast 527 606 39,000  Level FlightAware ADS-B
Fri 02:36:17 AM 56.5330 -7.8000 111° Southeast 524 603 39,000  Level FlightAware ADS-B
Fri 02:36:56 AM 56.4959 -7.6209 111° Southeast 484 557 39,000  Level FlightAware UK
Fri 02:36:57 AM 56.4980 -7.6310 111° Southeast 521 600 39,000  Level FlightAware ADS-B
Fri 02:37:37 AM 56.4640 -7.4700 111° Southeast 519 597 39,000  Level FlightAware ADS-B
Fri 02:38:06 AM 56.4400 -7.3600 111° Southeast 521 600 39,000  Level FlightAware ADS-B
Fri 02:38:52 AM 56.3970 -7.1560 111° Southeast 522 601 39,000  Level FlightAware ADS-B
Fri 02:39:27 AM 56.3649 -7.0101 111° Southeast 490 564 39,000  Level FlightAware UK
Fri 02:39:27 AM 56.3660 -7.0130 111° Southeast 519 597 39,000  Level FlightAware ADS-B
Fri 02:39:57 AM 56.3390 -6.8886 111° Southeast 480 552 39,000  Level FlightAware UK
Fri 02:40:07 AM 56.3310 -6.8550 111° Southeast 517 595 39,000  Level FlightAware ADS-B
Fri 02:40:52 AM 56.2920 -6.6760 111° Southeast 520 598 39,000  Level FlightAware ADS-B
Fri 02:41:26 AM 56.2670 -6.5650 111° Southeast 521 600 39,000  Level FlightAware ADS-B
Fri 02:41:27 AM 56.2593 -6.5281 111° Southeast 482 555 39,000  Level FlightAware UK
Fri 02:41:57 AM 56.2328 -6.4076 111° Southeast 486 559 39,000  Level FlightAware UK
Fri 02:42:11 AM 56.2220 -6.3590 111° Southeast 520 598 39,000  Level FlightAware ADS-B
Fri 02:42:56 AM 56.1810 -6.1770 112° Southeast 519 597 39,000  Level FlightAware ADS-B
Fri 02:43:27 AM 56.1517 -6.0486 112° Southeast 488 562 39,000  Level FlightAware UK
Fri 02:43:36 AM 56.1450 -6.0200 112° Southeast 518 596 39,000  Level FlightAware ADS-B
Fri 02:44:21 AM 56.1040 -5.8390 112° Southeast 518 596 39,000  Level FlightAware ADS-B
Fri 02:44:51 AM 56.0760 -5.7230 113° Southeast 516 594 39,000  Level FlightAware ADS-B
Fri 02:45:06 AM 56.0620 -5.6630 113° Southeast 516 594 39,000  Level FlightAware ADS-B
Fri 02:45:33 AM 56.0356 -5.5518 113° Southeast 482 555 39,000  Level FlightAware UK
Fri 02:46:03 AM 56.0077 -5.4337 113° Southeast 488 562 39,000  Level FlightAware UK
Fri 02:46:25 AM 55.9890 -5.3540 113° Southeast 513 590 39,000  Level FlightAware ADS-B
Fri 02:47:10 AM 55.9470 -5.1800 113° Southeast 515 593 39,000  Level FlightAware ADS-B
Fri 02:47:15 AM 55.9402 -5.1521 113° Southeast 480 552 39,000  Level FlightAware UK
Fri 02:47:45 AM 55.9118 -5.0349 113° Southeast 488 562 39,000  Level FlightAware UK
Fri 02:47:52 AM 55.9070 -5.0140 113° Southeast 518 596 39,000  Level FlightAware ADS-B
Fri 02:48:27 AM 55.8716 -4.8705 113° Southeast 470 541 39,000  Level FlightAware UK
Fri 02:48:37 AM 55.8640 -4.8370 113° Southeast 521 600 39,000  Level FlightAware ADS-B
Fri 02:49:18 AM 55.8240 -4.6780 114° Southeast 526 605 39,000  Level FlightAware ADS-B
Fri 02:49:53 AM 55.7890 -4.5360 114° Southeast 526 605 39,000  Level FlightAware ADS-B
Fri 02:50:27 AM 55.7548 -4.3971 114° Southeast 478 550 39,000  Level FlightAware UK
Fri 02:50:33 AM 55.7500 -4.3780 114° Southeast 525 604 39,000  Level FlightAware ADS-B
Fri 02:51:18 AM 55.7060 -4.2040 114° Southeast 526 605 39,000  Level FlightAware ADS-B
Fri 02:51:58 AM 55.6690 -4.0550 114° Southeast 527 606 39,000  Level FlightAware ADS-B
Fri 02:52:33 AM 55.6295 -3.9017 114° Southeast 484 557 39,000  Level FlightAware UK
Fri 02:52:39 AM 55.6250 -3.8860 114° Southeast 525 604 39,000  Level FlightAware ADS-B
Fri 02:53:19 AM 55.5850 -3.7280 114° Southeast 523 602 39,000  Level FlightAware ADS-B
Fri 02:54:06 AM 55.5380 -3.5470 115° Southeast 524 603 39,000  Level FlightAware ADS-B
Fri 02:54:36 AM 55.5070 -3.4280 115° Southeast 525 604 39,000  Level FlightAware ADS-B
Fri 02:55:15 AM 55.4664 -3.2717 115° Southeast 484 557 39,000  Level FlightAware UK
Fri 02:55:21 AM 55.4620 -3.2570 115° Southeast 524 603 39,000  Level FlightAware ADS-B
Fri 02:55:51 AM 55.4298 -3.1331 115° Southeast 482 555 39,000  Level FlightAware UK
Fri 02:56:02 AM 55.4200 -3.0980 115° Southeast 521 600 39,000  Level FlightAware ADS-B
Fri 02:56:37 AM 55.3850 -2.9630 114° Southeast 523 602 39,000  Level FlightAware ADS-B
Fri 02:57:18 AM 55.3450 -2.8130 114° Southeast 522 601 39,000  Level FlightAware ADS-B
Fri 02:57:22 AM 55.3377 -2.7878 114° Southeast 484 557 39,000  Level FlightAware UK
Fri 02:57:52 AM 55.3066 -2.6731 114° Southeast 480 552 39,000  Level FlightAware UK
Fri 02:58:02 AM 55.2970 -2.6370 114° Southeast 522 601 39,000  Level FlightAware ADS-B
Fri 02:58:42 AM 55.2560 -2.4850 115° Southeast 525 604 39,000  Level FlightAware ADS-B
Fri 02:59:22 AM 55.2131 -2.3287 115° Southeast 482 555 39,000  Level FlightAware UK
Fri 02:59:28 AM 55.2130 -2.3270 115° Southeast 524 603 39,000  Level FlightAware ADS-B
Fri 02:59:58 AM 55.1751 -2.1906 115° Southeast 478 550 39,000  Level FlightAware UK
Fri 03:00:23 AM 55.1510 -2.1020 115° Southeast 529 609 39,000  Level FlightAware ADS-B
Fri 03:01:07 AM 55.1030 -1.9310 116° Southeast 529 609 39,000  Level FlightAware ADS-B
Fri 03:01:41 AM 55.0670 -1.7980 115° Southeast 523 602 39,000  Level FlightAware ADS-B
Fri 03:02:09 AM 55.0370 -1.6900 116° Southeast 522 601 39,000  Level FlightAware ADS-B
Fri 03:02:49 AM 54.9970 -1.5450 116° Southeast 520 598 39,000  Level FlightAware ADS-B
Fri 03:03:22 AM 54.9598 -1.4145 116° Southeast 488 562 39,000  Level FlightAware UK
Fri 03:03:29 AM 54.9540 -1.3940 116° Southeast 520 598 39,000  Level FlightAware ADS-B
Fri 03:04:07 AM 54.9140 -1.2510 116° Southeast 519 597 39,000  Level FlightAware ADS-B
Fri 03:04:41 AM 54.8770 -1.1222 116° Southeast 488 562 39,000  Level FlightAware UK
Fri 03:04:49 AM 54.8690 -1.0940 116° Southeast 517 595 39,000  Level FlightAware ADS-B
Fri 03:05:23 AM 54.8324 -0.9666 116° Southeast 490 564 39,000  Level FlightAware UK
Fri 03:05:29 AM 54.8270 -0.9460 116° Southeast 515 593 39,000  Level FlightAware ADS-B
Fri 03:06:05 AM 54.7878 -0.8112 116° Southeast 486 559 39,000  Level FlightAware UK
Fri 03:06:13 AM 54.7810 -0.7870 116° Southeast 512 589 39,000  Level FlightAware ADS-B
Fri 03:06:57 AM 54.7350 -0.6280 117° Southeast 513 590 39,000  Level FlightAware ADS-B
Fri 03:07:37 AM 54.6910 -0.4780 117° Southeast 513 590 39,000  Level FlightAware ADS-B
Fri 03:08:11 AM 54.6534 -0.3509 117° Southeast 484 557 39,000  Level FlightAware UK
Fri 03:08:21 AM 54.6440 -0.3180 117° Southeast 514 592 39,000  Level FlightAware ADS-B
Fri 03:08:59 AM 54.6014 -0.1751 117° Southeast 490 564 39,000  Level FlightAware UK
Fri 03:09:01 AM 54.6010 -0.1730 117° Southeast 514 592 39,000  Level FlightAware ADS-B
Fri 03:09:41 AM 54.5580 -0.0270 117° Southeast 509 586 39,000  Level FlightAware ADS-B
Fri 03:10:25 AM 54.5100 0.1320 117° Southeast 512 589 39,000  Level FlightAware ADS-B
Fri 03:11:00 AM 54.4716 0.2591 117° Southeast 482 555 39,000  Level FlightAware UK
Fri 03:11:29 AM 54.4420 0.3560 117° Southeast 515 593 39,000  Level FlightAware ADS-B
Fri 03:12:06 AM 54.3986 0.4987 117° Southeast 484 557 39,000  Level FlightAware UK
Fri 03:12:10 AM 54.3970 0.5060 117° Southeast 515 593 39,000  Level FlightAware ADS-B
Fri 03:12:48 AM 54.3522 0.6504 117° Southeast 478 550 39,000  Level FlightAware UK
Fri 03:12:51 AM 54.3530 0.6490 117° Southeast 516 594 39,000  Level FlightAware ADS-B
Fri 03:13:29 AM 54.3090 0.7930 118° Southeast 519 597 39,000  Level FlightAware ADS-B
Fri 03:14:00 AM 54.2715 0.9117 118° Southeast 484 557 39,000  Level FlightAware UK
Fri 03:14:14 AM 54.2600 0.9490 118° Southeast 522 601 39,000  Level FlightAware ADS-B
Fri 03:14:59 AM 54.2080 1.1160 118° Southeast 518 596 39,000  Level FlightAware ADS-B
Fri 03:15:37 AM 54.1640 1.2560 118° Southeast 516 594 39,000  Level FlightAware ADS-B
Fri 03:16:21 AM 54.1130 1.4180 118° Southeast 515 593 39,000  Level FlightAware ADS-B
Fri 03:17:00 AM 54.0680 1.5585 118° Southeast 482 555 39,000  Level FlightAware UK
Fri 03:17:03 AM 54.0660 1.5660 118° Southeast 518 596 39,000  Level FlightAware ADS-B
Fri 03:17:37 AM 54.0267 1.6875 118° Southeast 484 557 39,000  Level FlightAware UK
Fri 03:17:39 AM 54.0250 1.6930 118° Southeast 519 597 39,000  Level FlightAware ADS-B
Fri 03:18:23 AM 53.9770 1.8430 119° Southeast 516 594 39,000  Level FlightAware ADS-B
Fri 03:19:03 AM 53.9300 1.9870 119° Southeast 511 588 39,000  Level FlightAware ADS-B
Fri 03:19:45 AM 53.8830 2.1310 119° Southeast 509 586 39,000  Level FlightAware ADS-B
Fri 03:20:25 AM 53.8297 2.2723 119° Southeast 482 555 39,000  Level FlightAware UK
Fri 03:20:26 AM 53.8300 2.2720 119° Southeast 507 583 39,000  Level FlightAware ADS-B
Fri 03:21:11 AM 53.7550 2.3960 136° Southeast 508 585 39,000  Level FlightAware ADS-B
Fri 03:21:49 AM 53.6910 2.5050 135° Southeast 507 583 39,000  Level FlightAware ADS-B
Fri 03:22:37 AM 53.6102 2.6416 135° Southeast 480 552 39,000  Level FlightAware UK
Fri 03:22:43 AM 53.6020 2.6560 135° Southeast 507 583 39,000  Level FlightAware ADS-B
Fri 03:23:24 AM 53.5350 2.7680 135° Southeast 509 586 39,000  Level FlightAware ADS-B
Fri 03:24:02 AM 53.4690 2.8770 135° Southeast 508 585 39,000  Level FlightAware ADS-B
Fri 03:24:45 AM 53.4070 2.9810 135° Southeast 507 583 39,000  Level FlightAware ADS-B
Fri 03:25:19 AM 53.3401 3.0909 135° Southeast 480 552 39,000  Level FlightAware UK
Fri 03:25:31 AM 53.3280 3.1170 135° Southeast 511 588 39,000  Level FlightAware ADS-B
Fri 03:26:11 AM 53.2670 3.2480 128° Southeast 515 593 39,000  Level FlightAware ADS-B
Fri 03:26:43 AM 53.2173 3.3528 128° Southeast 484 557 39,000  Level FlightAware UK
Fri 03:26:50 AM 53.2120 3.3640 128° Southeast 515 593 39,000  Level FlightAware ADS-B
Fri 03:27:36 AM 53.1420 3.5110 128° Southeast 513 590 39,000  Level FlightAware ADS-B
Fri 03:28:16 AM 53.0820 3.6360 129° Southeast 513 590 39,000  Level FlightAware ADS-B
Fri 03:28:58 AM 53.0200 3.7640 129° Southeast 512 589 39,000  Level FlightAware ADS-B
Fri 03:29:40 AM 52.9600 3.8880 129° Southeast 510 587 39,000  Level FlightAware ADS-B
Fri 03:30:22 AM 52.8960 4.0200 129° Southeast 510 587 39,000  Level FlightAware ADS-B
Fri 03:31:03 AM 52.8330 4.1470 129° Southeast 512 589 39,000  Level FlightAware ADS-B
Fri 03:31:41 AM 52.7790 4.2580 129° Southeast 512 589 39,000  Level FlightAware ADS-B
Fri 03:32:15 AM 52.7280 4.3620 129° Southeast 512 589 39,000  Level FlightAware ADS-B
Fri 03:32:55 AM 52.6663 4.4874 129° Southeast 480 552 39,000  Level FlightAware UK
Fri 03:33:03 AM 52.6550 4.5070 129° Southeast 514 592 39,000  Level FlightAware ADS-B
Fri 03:33:39 AM 52.6030 4.6130 129° Southeast 513 590 39,000  Level FlightAware ADS-B
Fri 03:34:19 AM 52.5420 4.7350 129° Southeast 514 592 39,000  Level FlightAware ADS-B
Fri 03:34:20 AM 52.5395 4.7409 129° Southeast 480 552 39,000  Level FlightAware UK
Fri 03:34:50 AM 52.4937 4.8309 129° Southeast 484 557 39,000  Level FlightAware UK
Fri 03:35:04 AM 52.4720 4.8730 129° Southeast 514 592 39,000  Level FlightAware ADS-B
Fri 03:35:42 AM 52.4160 4.9830 130° Southeast 513 590 39,000  Level FlightAware ADS-B
Fri 03:36:26 AM 52.3474 5.1171 130° Southeast 480 552 39,000  Level FlightAware UK
Fri 03:36:27 AM 52.3480 5.1180 130° Southeast 516 594 39,000  Level FlightAware ADS-B
Fri 03:37:08 AM 52.2856 5.2404 130° Southeast 480 552 39,000  Level FlightAware UK
Fri 03:37:09 AM 52.2830 5.2450 130° Southeast 517 595 39,000  Level FlightAware ADS-B
Fri 03:37:53 AM 52.2140 5.3780 130° Southeast 518 596 39,000  Level FlightAware ADS-B
Fri 03:38:26 AM 52.1650 5.4740 130° Southeast 517 595 39,000  Level FlightAware ADS-B
Fri 03:39:05 AM 52.1070 5.5850 130° Southeast 517 595 39,000  Level FlightAware ADS-B
Fri 03:39:44 AM 52.0412 5.7069 130° Southeast 482 555 39,000  Level FlightAware UK
Fri 03:39:51 AM 52.0350 5.7220 130° Southeast 517 595 39,000  Level FlightAware ADS-B
Fri 03:40:29 AM 51.9740 5.8390 130° Southeast 516 594 39,000  Level FlightAware ADS-B
Fri 03:41:07 AM 51.9150 5.9520 130° Southeast 513 590 39,000  Level FlightAware ADS-B
Fri 03:41:47 AM 51.8540 6.0660 131° Southeast 512 589 39,000  Level FlightAware ADS-B
Fri 03:42:31 AM 51.7880 6.1920 130° Southeast 509 586 39,000 -786 Level FlightAware ADS-B
Fri 03:43:11 AM 51.7260 6.3070 131° Southeast 507 583 37,900 -2,122 Descending FlightAware ADS-B
Fri 03:43:53 AM 51.6620 6.4270 131° Southeast 505 581 36,100 -2,591 Descending FlightAware ADS-B
Fri 03:44:39 AM 51.5910 6.5590 131° Southeast 510 587 34,100 -2,591 Descending FlightAware ADS-B
Fri 03:45:21 AM 51.5280 6.6750 131° Southeast 503 579 32,300 -2,514 Descending FlightAware ADS-B
Fri 03:45:53 AM 51.4790 6.7650 131° Southeast 498 573 31,000 -2,605 Descending FlightAware ADS-B
Fri 03:46:37 AM 51.4120 6.8880 131° Southeast 490 564 29,000 -2,651 Descending FlightAware ADS-B
Fri 03:47:19 AM 51.3490 7.0020 131° Southeast 481 554 27,200 -2,071 Descending FlightAware ADS-B
Fri 03:48:01 AM 51.2860 7.1050 134° Southeast 457 526 26,100 -857 Descending FlightAware ADS-B
Fri 03:48:43 AM 51.2240 7.2060 134° Southeast 444 511 26,000 -73 Descending FlightAware ADS-B
Fri 03:49:23 AM 51.1710 7.3030 131° Southeast 444 511 26,000 -429 Level FlightAware ADS-B
Fri 03:50:07 AM 51.1130 7.4060 132° Southeast 446 513 25,400 -1,125 Descending FlightAware ADS-B
Fri 03:50:43 AM 51.0620 7.4960 132° Southeast 446 513 24,500 -1,558 Descending FlightAware ADS-B
Fri 03:51:24 AM 51.0050 7.5950 132° Southeast 435 501 23,400 -1,852 Descending FlightAware ADS-B
Fri 03:52:04 AM 50.9520 7.6900 132° Southeast 433 498 22,000 -2,053 Descending FlightAware ADS-B
Fri 03:52:40 AM 50.9050 7.7730 132° Southeast 426 490 20,800 -2,077 Descending FlightAware ADS-B
Fri 03:53:22 AM 50.8490 7.8700 132° Southeast 416 479 19,300 -2,093 Descending FlightAware ADS-B
Fri 03:54:06 AM 50.7930 7.9670 132° Southeast 407 468 17,800 -2,071 Descending FlightAware ADS-B
Fri 03:54:46 AM 50.7440 8.0520 132° Southeast 394 453 16,400 -2,127 Descending FlightAware ADS-B
Fri 03:55:25 AM 50.6950 8.1370 132° Southeast 390 449 15,000 -2,047 Descending FlightAware ADS-B
Fri 03:56:11 AM 50.6380 8.2340 133° Southeast 385 443 13,500 -2,023 Descending FlightAware ADS-B
Fri 03:56:51 AM 50.5900 8.3160 133° Southeast 386 444 12,100 -1,875 Descending FlightAware ADS-B
Fri 03:57:31 AM 50.5420 8.3990 132° Southeast 369 425 11,000 -1,360 Descending FlightAware ADS-B
Fri 03:58:06 AM 50.5030 8.4660 132° Southeast 356 410 10,400 -750 Descending FlightAware ADS-B
Fri 03:58:51 AM 50.4530 8.5530 132° Southeast 346 398 10,000 -300 Descending FlightAware ADS-B
Fri 03:59:26 AM 50.4180 8.6150 132° Southeast 311 358 10,000 -300 Level FlightAware ADS-B
Fri 03:59:51 AM 50.3940 8.6570 132° Southeast 299 344 9,700 -1,071 Descending FlightAware ADS-B
Fri 04:00:22 AM 50.3720 8.7140 121° Southeast 294 338 9,000 -1,400 Descending FlightAware ADS-B
Fri 04:00:51 AM 50.3540 8.7700 117° Southeast 293 337 8,300 -1,263 Descending FlightAware ADS-B
Fri 04:01:19 AM 50.3380 8.8210 116° Southeast 291 335 7,800 -1,111 Descending FlightAware ADS-B
Fri 04:01:45 AM 50.3220 8.8720 116° Southeast 283 326 7,300 -1,154 Descending FlightAware ADS-B
Fri 04:02:11 AM 50.3070 8.9170 118° Southeast 283 326 6,800 -1,179 Descending FlightAware ADS-B
Fri 04:02:41 AM 50.2850 8.9680 124° Southeast 276 318 6,200 -1,143 Descending FlightAware ADS-B
Fri 04:02:53 AM 50.2730 8.9770 154° Southeast 272 313 6,000 -714 Descending FlightAware ADS-B
Fri 04:03:23 AM 50.2380 8.9960 161° South 257 296 5,700 -577 Descending FlightAware ADS-B
Fri 04:03:45 AM 50.2130 9.0070 164° South 244 281 5,500 -682 Descending FlightAware ADS-B
Fri 04:04:07 AM 50.1900 8.9980 194° South 230 265 5,200 -1,000 Descending FlightAware ADS-B
Fri 04:04:27 AM 50.1700 8.9840 204° Southwest 230 265 4,800 -1,102 Descending FlightAware ADS-B
Fri 04:04:56 AM 50.1450 8.9530 218° Southwest 234 269 4,300 -873 Descending FlightAware ADS-B
Fri 04:05:22 AM 50.1250 8.9250 222° Southwest 219 252 4,000 -585 Descending FlightAware ADS-B
Fri 04:05:37 AM 50.1170 8.9050 238° Southwest 215 247 3,900 -400 Descending FlightAware ADS-B
Fri 04:05:52 AM 50.1110 8.8840 246° West 207 238 3,800 -462 Descending FlightAware ADS-B
Fri 04:06:16 AM 50.1030 8.8510 249° West 191 220 3,600 -706 Descending FlightAware ADS-B
Fri 04:06:26 AM 50.1000 8.8390 249° West 186 214 3,400 -1,024 Descending FlightAware ADS-B
Fri 04:06:57 AM 50.0910 8.8010 250° West 185 213 2,900 -1,000 Descending FlightAware ADS-B
Fri 04:07:26 AM 50.0820 8.7640 249° West 176 203 2,400 -1,017 Descending FlightAware ADS-B
Fri 04:07:56 AM 50.0740 8.7280 251° West 171 197 1,900 -913 Descending FlightAware ADS-B
Fri 04:08:12 AM 50.0700 8.7110 250° West 166 191 1,700 -878 Descending FlightAware ADS-B
Fri 04:08:37 AM 50.0630 8.6830 249° West 150 173 1,300 -873 Descending FlightAware ADS-B
Fri 04:09:07 AM 50.0560 8.6530 250° West 147 169 900 -764 Descending FlightAware ADS-B
Fri 04:09:32 AM 50.0500 8.6280 250° West 145 167 600 -667 Descending FlightAware ADS-B
Fri 04:10:01 AM 50.0440 8.6030 250° West 143 165 300 -621 Descending FlightAware ADS-B
Fri 04:10:31 AM 50.0370 8.5740 249° West 143 165 -600 Descending FlightAware ADS-B
Fri 04:10:57 AM 50.0320 8.5530 250° West 143 165  Level FlightAware ADS-B
Fri 04:12:17 AM 50.0330 8.5450 281° West 15 17  Level FlightAware ADS-B
Fri 04:13:46 AM 50.0370 8.5460 North 11 13  Level FlightAware ADS-B
Fri 04:14:21 AM 50.0380 8.5480 52° Northeast 8 9  Level FlightAware ADS-B
Fri 04:15:51 AM 50.0390 8.5530 73° East 13 15  Level FlightAware ADS-B
Fri 04:16:17 AM 50.0390 8.5550 90° East 14 16  Level FlightAware ADS-B
Fri 04:16:47 AM 50.0400 8.5580 63° Northeast 8 9  Level FlightAware ADS-B
Fri 04:17:17 AM 50.0400 8.5590 90° East 3 3  Level FlightAware ADS-B
Fri 04:17:42 AM 50.0410 8.5600 33° Northeast  Level FlightAware ADS-B
Fri 04:19:22 AM 50.0410 8.5610 90° East 11 13  Level FlightAware ADS-B
Fri 04:19:52 AM 50.0410 8.5630 90° East 8 9  Level FlightAware ADS-B
Fri 04:22:00 AM 50.0167 8.5667 136° Southeast  Level FlightAware Approximate

Login

Don't have an account? Register now (free) for customized features, flight alerts, and more!